createdAt,value
2023-02-01T00:00:46.251Z,66.97
2023-02-01T00:02:47.816Z,66.72
2023-02-01T00:04:49.255Z,66.73
2023-02-01T00:06:50.673Z,66.48
2023-02-01T00:08:55.426Z,66.99
2023-02-01T00:11:04.469Z,67.20
2023-02-01T00:13:05.955Z,66.81
2023-02-01T00:15:07.743Z,66.60
2023-02-01T00:17:09.393Z,66.42
2023-02-01T00:19:11.718Z,65.92
2023-02-01T00:21:14.037Z,66.01
2023-02-01T00:23:15.636Z,66.01
2023-02-01T00:25:17.099Z,65.97
2023-02-01T00:27:21.312Z,66.15
2023-02-01T00:29:22.856Z,65.54
2023-02-01T00:31:24.450Z,65.64
2023-02-01T00:33:26.126Z,65.61
2023-02-01T00:35:27.649Z,65.16
2023-02-01T00:37:31.526Z,65.00
2023-02-01T00:39:33.070Z,65.43
2023-02-01T00:41:34.815Z,65.57
2023-02-01T00:43:36.341Z,65.32
2023-02-01T00:45:37.888Z,64.47
2023-02-01T00:47:39.443Z,64.43
2023-02-01T00:49:40.949Z,64.51
2023-02-01T00:51:42.466Z,64.21
2023-02-01T00:53:44.017Z,64.00
2023-02-01T00:55:46.225Z,64.12
2023-02-01T00:57:47.771Z,63.70
2023-02-01T00:59:49.268Z,64.09
2023-02-01T01:01:50.775Z,63.83
2023-02-01T01:03:53.654Z,63.62
2023-02-01T01:05:57.478Z,63.89
2023-02-01T01:07:58.969Z,63.33
2023-02-01T01:10:00.522Z,63.69
2023-02-01T01:12:03.631Z,63.97
2023-02-01T01:14:05.821Z,63.92
2023-02-01T01:16:07.949Z,63.54
2023-02-01T01:18:09.706Z,63.31
2023-02-01T01:20:11.515Z,63.07
2023-02-01T01:22:13.110Z,62.46
2023-02-01T01:24:14.581Z,62.38
2023-02-01T01:26:17.833Z,61.60
2023-02-01T01:28:19.456Z,62.12
2023-02-01T01:30:21.265Z,61.76
2023-02-01T01:32:22.978Z,62.01
2023-02-01T01:34:24.621Z,61.66
2023-02-01T01:36:26.480Z,61.44
2023-02-01T01:38:27.953Z,60.91
2023-02-01T01:40:29.671Z,60.98
2023-02-01T01:42:31.136Z,61.01
2023-02-01T01:44:51.061Z,61.29
2023-02-01T01:46:52.537Z,60.96
2023-02-01T01:49:10.362Z,61.02
2023-02-01T01:51:11.879Z,61.05
2023-02-01T01:53:13.489Z,61.08
2023-02-01T01:55:15.511Z,61.18
2023-02-01T01:57:22.032Z,61.77
2023-02-01T01:59:23.908Z,61.75
2023-02-01T02:01:25.371Z,61.59
2023-02-01T02:03:28.782Z,62.11
2023-02-01T02:05:30.808Z,62.29
2023-02-01T02:07:33.709Z,62.11
2023-02-01T02:09:35.168Z,62.67
2023-02-01T02:11:36.659Z,62.59
2023-02-01T02:13:39.950Z,62.72
2023-02-01T02:15:43.245Z,62.93
2023-02-01T02:17:47.767Z,63.01
2023-02-01T02:20:01.285Z,62.47
2023-02-01T02:22:05.456Z,62.06
2023-02-01T02:24:13.140Z,62.09
2023-02-01T02:26:17.163Z,61.68
2023-02-01T02:28:30.564Z,62.00
2023-02-01T02:30:50.291Z,61.89
2023-02-01T02:33:02.913Z,62.10
2023-02-01T02:35:13.572Z,61.81
2023-02-01T02:37:27.961Z,62.10
2023-02-01T02:39:42.307Z,61.78
2023-02-01T02:42:32.062Z,61.69
2023-02-01T02:45:12.403Z,62.56
2023-02-01T02:47:27.379Z,62.70
2023-02-01T02:49:30.406Z,62.02
2023-02-01T02:51:50.529Z,62.29
2023-02-01T02:54:18.246Z,62.13
2023-02-01T02:56:38.952Z,61.49
2023-02-01T02:58:59.031Z,61.84
2023-02-01T03:01:19.517Z,61.18
2023-02-01T03:03:42.579Z,61.46
2023-02-01T03:05:47.570Z,61.18
2023-02-01T03:08:01.227Z,60.91
2023-02-01T03:10:07.134Z,60.91
2023-02-01T03:12:29.361Z,60.32
2023-02-01T03:14:30.798Z,60.34
2023-02-01T03:16:38.254Z,60.30
2023-02-01T03:18:58.279Z,60.77
2023-02-01T03:20:59.817Z,60.69
2023-02-01T03:23:01.346Z,60.21
2023-02-01T03:25:04.371Z,60.36
2023-02-01T03:27:11.727Z,60.12
2023-02-01T03:29:14.589Z,60.35
2023-02-01T03:31:16.132Z,60.55
2023-02-01T03:33:22.079Z,60.72
2023-02-01T03:35:28.350Z,60.66
2023-02-01T03:37:29.839Z,60.89
2023-02-01T03:39:36.340Z,60.26
2023-02-01T03:41:39.675Z,60.80
2023-02-01T03:43:56.493Z,60.72
2023-02-01T03:45:59.888Z,60.17
2023-02-01T03:48:01.387Z,60.47
2023-02-01T03:50:04.175Z,60.29
2023-02-01T03:52:06.392Z,60.89
2023-02-01T03:54:08.276Z,60.72
2023-02-01T03:56:12.607Z,60.57
2023-02-01T03:58:14.995Z,60.06
2023-02-01T04:00:17.327Z,60.72
2023-02-01T04:02:18.891Z,60.12
2023-02-01T04:04:23.351Z,60.45
2023-02-01T04:06:25.115Z,60.96
2023-02-01T04:08:26.874Z,61.31
2023-02-01T04:10:28.494Z,60.83
2023-02-01T04:12:30.136Z,61.15
2023-02-01T04:14:31.648Z,60.89
2023-02-01T04:16:33.310Z,61.56
2023-02-01T04:18:34.931Z,61.58
2023-02-01T04:20:36.423Z,61.97
2023-02-01T04:22:37.910Z,61.83
2023-02-01T04:24:39.557Z,62.18
2023-02-01T04:26:41.041Z,62.48
2023-02-01T04:28:42.525Z,62.39
2023-02-01T04:30:44.132Z,62.33
2023-02-01T04:32:45.717Z,62.12
2023-02-01T04:35:05.648Z,62.07
2023-02-01T04:37:07.204Z,62.47
2023-02-01T04:39:09.886Z,63.09
2023-02-01T04:41:11.329Z,62.64
2023-02-01T04:43:12.771Z,62.82
2023-02-01T04:45:14.248Z,63.26
2023-02-01T04:47:16.700Z,63.22
2023-02-01T04:49:18.215Z,63.60
2023-02-01T04:51:19.726Z,63.29
2023-02-01T04:53:21.322Z,63.69
2023-02-01T04:55:23.047Z,63.92
2023-02-01T04:57:24.560Z,64.01
2023-02-01T04:59:26.205Z,64.03
2023-02-01T05:01:27.696Z,64.40
2023-02-01T05:03:29.222Z,63.97
2023-02-01T05:05:30.835Z,64.10
2023-02-01T05:07:32.384Z,64.34
2023-02-01T05:09:33.858Z,63.74
2023-02-01T05:11:53.904Z,63.76
2023-02-01T05:13:55.402Z,64.12
2023-02-01T05:15:56.887Z,64.17
2023-02-01T05:17:58.524Z,64.40
2023-02-01T05:20:00.036Z,64.45
2023-02-01T05:22:01.566Z,63.99
2023-02-01T05:24:14.083Z,64.13
2023-02-01T05:26:15.614Z,64.28
2023-02-01T05:28:17.219Z,63.91
2023-02-01T05:30:18.766Z,64.29
2023-02-01T05:32:22.705Z,64.31
2023-02-01T05:34:24.431Z,64.34
2023-02-01T05:36:25.941Z,64.68
2023-02-01T05:38:27.399Z,64.22
2023-02-01T05:40:28.976Z,64.34
2023-02-01T05:42:30.465Z,64.29
2023-02-01T05:44:31.927Z,64.14
2023-02-01T05:46:33.626Z,64.27
2023-02-01T05:48:35.500Z,63.80
2023-02-01T05:50:36.984Z,63.60
2023-02-01T05:52:38.477Z,63.66
2023-02-01T05:54:40.067Z,63.25
2023-02-01T05:56:41.921Z,63.52
2023-02-01T05:58:43.359Z,62.88
2023-02-01T06:00:44.817Z,62.90
2023-02-01T06:02:46.383Z,62.87
2023-02-01T06:04:47.820Z,62.63
2023-02-01T06:06:51.414Z,62.45
2023-02-01T06:08:52.919Z,62.68
2023-02-01T06:11:00.717Z,62.19
2023-02-01T06:13:03.977Z,62.36
2023-02-01T06:15:05.884Z,62.61
2023-02-01T06:17:08.009Z,62.34
2023-02-01T06:19:09.918Z,62.05
2023-02-01T06:21:11.602Z,62.19
2023-02-01T06:23:13.098Z,61.91
2023-02-01T06:25:14.784Z,61.69
2023-02-01T06:27:16.370Z,61.36
2023-02-01T06:29:17.809Z,61.68
2023-02-01T06:31:19.423Z,61.29
2023-02-01T06:33:21.019Z,61.72
2023-02-01T06:35:22.509Z,61.04
2023-02-01T06:37:25.907Z,60.95
2023-02-01T06:39:28.655Z,61.20
2023-02-01T06:41:30.166Z,61.05
2023-02-01T06:43:31.708Z,60.70
2023-02-01T06:45:33.348Z,60.86
2023-02-01T06:47:34.807Z,60.74
2023-02-01T06:49:36.245Z,60.93
2023-02-01T06:51:37.701Z,60.84
2023-02-01T06:53:39.174Z,60.86
2023-02-01T06:55:40.701Z,60.87
2023-02-01T06:57:42.194Z,60.67
2023-02-01T06:59:43.727Z,60.86
2023-02-01T07:01:45.235Z,60.66
2023-02-01T07:03:50.892Z,60.88
2023-02-01T07:05:59.555Z,60.25
2023-02-01T07:08:01.009Z,60.28
2023-02-01T07:10:02.464Z,60.19
2023-02-01T07:12:04.145Z,60.05
2023-02-01T07:14:05.661Z,60.06
2023-02-01T07:16:08.362Z,60.06
2023-02-01T07:18:09.888Z,60.29
2023-02-01T07:20:11.588Z,60.03
2023-02-01T07:22:13.129Z,60.17
2023-02-01T07:24:15.794Z,60.46
2023-02-01T07:26:17.591Z,60.11
2023-02-01T07:28:19.229Z,59.88
2023-02-01T07:30:21.111Z,60.00
2023-02-01T07:32:22.845Z,59.78
2023-02-01T07:34:24.411Z,59.60
2023-02-01T07:36:26.125Z,59.62
2023-02-01T07:38:28.077Z,59.21
2023-02-01T07:40:30.405Z,59.50
2023-02-01T07:42:31.914Z,59.46
2023-02-01T07:44:33.486Z,59.27
2023-02-01T07:46:35.009Z,59.46
2023-02-01T07:48:36.514Z,59.38
2023-02-01T07:50:37.973Z,58.76
2023-02-01T07:52:39.435Z,58.96
2023-02-01T07:54:40.890Z,58.68
2023-02-01T07:56:42.418Z,58.61
2023-02-01T07:58:44.017Z,58.64
2023-02-01T08:01:04.264Z,58.92
2023-02-01T08:03:06.069Z,58.50
2023-02-01T08:05:07.921Z,58.18
2023-02-01T08:07:09.361Z,57.91
2023-02-01T08:09:11.985Z,57.89
2023-02-01T08:11:13.756Z,57.51
2023-02-01T08:13:15.222Z,57.53
2023-02-01T08:15:16.893Z,57.63
2023-02-01T08:17:18.411Z,57.39
2023-02-01T08:19:20.467Z,57.25
2023-02-01T08:21:23.145Z,57.05
2023-02-01T08:23:24.666Z,56.65
2023-02-01T08:25:26.353Z,56.72
2023-02-01T08:27:28.269Z,56.48
2023-02-01T08:29:29.757Z,56.23
2023-02-01T08:31:31.518Z,56.59
2023-02-01T08:33:33.168Z,56.39
2023-02-01T08:35:43.951Z,56.34
2023-02-01T08:37:45.740Z,55.98
2023-02-01T08:39:48.142Z,55.90
2023-02-01T08:42:09.547Z,56.13
2023-02-01T08:44:11.035Z,55.58
2023-02-01T08:46:12.793Z,55.50
2023-02-01T08:48:14.404Z,55.11
2023-02-01T08:50:16.002Z,54.87
2023-02-01T08:52:17.568Z,54.92
2023-02-01T08:54:19.061Z,54.56
2023-02-01T08:56:20.572Z,54.41
2023-02-01T08:58:22.833Z,54.63
2023-02-01T09:00:24.619Z,54.45
2023-02-01T09:02:26.380Z,55.41
2023-02-01T09:04:27.910Z,56.04
2023-02-01T09:06:29.497Z,55.37
2023-02-01T09:08:31.046Z,55.00
2023-02-01T09:10:35.809Z,54.58
2023-02-01T09:12:37.367Z,53.77
2023-02-01T09:14:38.879Z,53.79
2023-02-01T09:16:40.438Z,54.09
2023-02-01T09:18:50.814Z,53.39
2023-02-01T09:21:06.977Z,53.36
2023-02-01T09:23:08.507Z,53.84
2023-02-01T09:25:10.030Z,53.90
2023-02-01T09:27:11.882Z,53.32
2023-02-01T09:29:13.481Z,52.24
2023-02-01T09:31:15.050Z,52.12
2023-02-01T09:33:18.644Z,52.07
2023-02-01T09:35:20.183Z,51.83
2023-02-01T09:37:21.772Z,52.58
2023-02-01T09:39:23.456Z,52.15
2023-02-01T09:41:28.123Z,51.46
2023-02-01T09:43:29.574Z,51.02
2023-02-01T09:45:43.247Z,51.28
2023-02-01T09:47:48.357Z,51.24
2023-02-01T09:49:52.392Z,50.45
2023-02-01T09:51:53.901Z,49.89
2023-02-01T09:54:05.481Z,49.39
2023-02-01T09:56:08.277Z,49.70
2023-02-01T09:58:13.073Z,48.98
2023-02-01T10:00:16.525Z,49.39
2023-02-01T10:02:27.350Z,49.08
2023-02-01T10:04:28.809Z,48.83
2023-02-01T10:06:42.438Z,48.49
2023-02-01T10:08:53.148Z,48.23
2023-02-01T10:10:54.800Z,47.71
2023-02-01T10:13:14.973Z,47.83
2023-02-01T10:15:16.511Z,47.90
2023-02-01T10:17:31.007Z,47.85
2023-02-01T10:19:47.904Z,47.92
2023-02-01T10:21:54.004Z,47.68
2023-02-01T10:24:01.128Z,47.47
2023-02-01T10:26:07.554Z,47.33
2023-02-01T10:28:10.251Z,47.70
2023-02-01T10:30:22.917Z,47.63
2023-02-01T10:32:26.173Z,47.67
2023-02-01T10:34:28.879Z,47.01
2023-02-01T10:36:39.470Z,46.90
2023-02-01T10:38:41.175Z,47.29
2023-02-01T10:40:42.686Z,47.81
2023-02-01T10:42:44.413Z,47.56
2023-02-01T10:44:46.523Z,47.05
2023-02-01T10:46:48.229Z,46.27
2023-02-01T10:48:50.004Z,46.68
2023-02-01T10:51:01.613Z,46.69
2023-02-01T10:53:05.715Z,46.99
2023-02-01T10:55:25.936Z,46.37
2023-02-01T10:57:29.437Z,46.45
2023-02-01T10:59:33.592Z,46.52
2023-02-01T11:01:36.883Z,46.29
2023-02-01T11:03:42.268Z,45.99
2023-02-01T11:05:47.191Z,45.70
2023-02-01T11:07:55.974Z,46.37
2023-02-01T11:09:58.976Z,46.39
2023-02-01T11:12:00.784Z,45.97
2023-02-01T11:14:05.384Z,46.58
2023-02-01T11:16:07.207Z,47.30
2023-02-01T11:18:19.430Z,47.32
2023-02-01T11:20:27.251Z,46.96
2023-02-01T11:22:30.447Z,46.78
2023-02-01T11:24:36.633Z,46.81
2023-02-01T11:26:40.192Z,46.98
2023-02-01T11:28:42.191Z,46.86
2023-02-01T11:30:45.104Z,46.42
2023-02-01T11:32:47.568Z,47.11
2023-02-01T11:34:50.513Z,46.18
2023-02-01T11:36:54.063Z,46.80
2023-02-01T11:39:09.072Z,46.94
2023-02-01T11:41:23.168Z,46.61
2023-02-01T11:43:26.067Z,46.91
2023-02-01T11:45:27.511Z,46.48
2023-02-01T11:47:32.889Z,46.22
2023-02-01T11:49:34.345Z,46.77
2023-02-01T11:51:43.606Z,46.50
2023-02-01T11:54:08.491Z,46.55
2023-02-01T11:56:18.712Z,46.21
2023-02-01T11:58:20.218Z,46.28
2023-02-01T12:00:22.110Z,45.99
2023-02-01T12:02:36.691Z,46.39
2023-02-01T12:04:44.302Z,46.07
2023-02-01T12:06:53.050Z,46.59
2023-02-01T12:09:03.509Z,46.71
2023-02-01T12:11:14.808Z,46.56
2023-02-01T12:13:30.353Z,47.31
2023-02-01T12:15:50.190Z,46.68
2023-02-01T12:17:57.409Z,46.74
2023-02-01T12:20:04.405Z,47.21
2023-02-01T12:22:14.190Z,47.36
2023-02-01T12:24:15.655Z,47.21
2023-02-01T12:26:35.610Z,47.35
2023-02-01T12:28:46.400Z,47.01
2023-02-01T12:30:47.957Z,47.46
2023-02-01T12:32:52.588Z,47.75
2023-02-01T12:35:26.435Z,47.61
2023-02-01T12:37:37.819Z,47.41
2023-02-01T12:39:51.214Z,47.16
2023-02-01T12:41:58.872Z,46.58
2023-02-01T12:44:09.796Z,47.12
2023-02-01T12:46:13.519Z,47.21
2023-02-01T12:48:21.859Z,47.24
2023-02-01T12:50:41.840Z,46.59
2023-02-01T12:52:47.920Z,46.71
2023-02-01T12:54:49.424Z,46.11
2023-02-01T12:56:52.891Z,45.79
2023-02-01T12:58:55.836Z,45.95
2023-02-01T13:01:05.281Z,46.45
2023-02-01T13:03:12.021Z,46.44
2023-02-01T13:05:16.544Z,46.39
2023-02-01T13:07:19.407Z,46.18
2023-02-01T13:09:20.809Z,46.09
2023-02-01T13:11:35.422Z,45.40
2023-02-01T13:13:55.975Z,45.25
2023-02-01T13:15:59.652Z,45.35
2023-02-01T13:18:02.288Z,45.31
2023-02-01T13:20:08.595Z,45.37
2023-02-01T13:22:14.394Z,45.40
2023-02-01T13:24:43.851Z,45.18
2023-02-01T13:26:45.821Z,45.56
2023-02-01T13:28:48.701Z,46.05
2023-02-01T13:31:09.150Z,46.10
2023-02-01T13:33:52.888Z,45.50
2023-02-01T13:35:43.160Z,44.78
2023-02-01T13:37:49.380Z,44.19
2023-02-01T13:39:51.921Z,44.38
2023-02-01T13:42:03.246Z,44.37
2023-02-01T13:44:12.795Z,44.21
2023-02-01T13:46:15.938Z,44.59
2023-02-01T13:48:30.703Z,44.89
2023-02-01T13:50:36.203Z,44.83
2023-02-01T13:52:39.911Z,44.55
2023-02-01T13:54:41.391Z,44.23
2023-02-01T13:56:43.222Z,44.46
2023-02-01T13:58:45.681Z,45.06
2023-02-01T14:00:47.478Z,45.50
2023-02-01T14:02:50.227Z,45.30
2023-02-01T14:04:52.047Z,45.71
2023-02-01T14:06:55.010Z,45.31
2023-02-01T14:09:09.405Z,45.37
2023-02-01T14:11:29.568Z,45.49
2023-02-01T14:13:31.090Z,45.04
2023-02-01T14:15:32.601Z,44.90
2023-02-01T14:17:35.272Z,45.03
2023-02-01T14:19:36.850Z,44.91
2023-02-01T14:22:02.452Z,45.73
2023-02-01T14:24:24.270Z,45.74
2023-02-01T14:26:26.680Z,46.08
2023-02-01T14:28:29.849Z,45.36
2023-02-01T14:30:31.418Z,46.08
2023-02-01T14:32:34.844Z,46.23
2023-02-01T14:34:44.314Z,46.29
2023-02-01T14:36:47.861Z,46.31
2023-02-01T14:38:50.219Z,45.70
2023-02-01T14:40:51.705Z,45.45
2023-02-01T14:42:53.569Z,45.61
2023-02-01T14:44:58.858Z,45.35
2023-02-01T14:47:07.796Z,45.65
2023-02-01T14:49:09.523Z,46.59
2023-02-01T14:51:12.165Z,46.25
2023-02-01T14:53:13.936Z,46.87
2023-02-01T14:55:33.137Z,46.86
2023-02-01T14:57:35.290Z,47.36
2023-02-01T14:59:37.808Z,47.39
2023-02-01T15:01:40.145Z,47.84
2023-02-01T15:03:53.975Z,47.81
2023-02-01T15:05:56.077Z,47.61
2023-02-01T15:07:59.071Z,47.17
2023-02-01T15:10:01.317Z,47.29
2023-02-01T15:12:07.110Z,47.63
2023-02-01T15:14:14.922Z,47.96
2023-02-01T15:16:16.829Z,47.25
2023-02-01T15:18:19.679Z,47.33
2023-02-01T15:20:25.058Z,47.06
2023-02-01T15:22:28.953Z,47.22
2023-02-01T15:24:31.453Z,47.25
2023-02-01T15:26:33.189Z,47.09
2023-02-01T15:28:34.840Z,47.13
2023-02-01T15:30:36.658Z,47.14
2023-02-01T15:32:39.627Z,47.50
2023-02-01T15:34:48.916Z,47.54
2023-02-01T15:37:03.123Z,47.55
2023-02-01T15:39:23.928Z,46.66
2023-02-01T15:41:29.888Z,46.96
2023-02-01T15:43:33.461Z,46.80
2023-02-01T15:45:34.937Z,47.06
2023-02-01T15:47:37.104Z,46.46
2023-02-01T15:49:38.981Z,46.91
2023-02-01T15:51:40.538Z,46.57
2023-02-01T15:53:44.821Z,46.87
2023-02-01T15:55:48.698Z,46.66
2023-02-01T15:57:50.178Z,47.01
2023-02-01T15:59:52.003Z,46.99
2023-02-01T16:01:53.635Z,47.33
2023-02-01T16:04:24.476Z,46.75
2023-02-01T16:06:26.027Z,47.71
2023-02-01T16:08:28.893Z,46.98
2023-02-01T16:10:30.678Z,47.54
2023-02-01T16:12:37.147Z,47.84
2023-02-01T16:14:38.624Z,47.50
2023-02-01T16:16:40.094Z,47.83
2023-02-01T16:18:42.096Z,47.41
2023-02-01T16:20:44.348Z,47.58
2023-02-01T16:22:46.023Z,48.01
2023-02-01T16:24:48.722Z,47.65
2023-02-01T16:26:50.407Z,47.70
2023-02-01T16:28:51.924Z,47.56
2023-02-01T16:30:53.436Z,48.25
2023-02-01T16:32:56.069Z,47.63
2023-02-01T16:34:57.691Z,48.14
2023-02-01T16:36:59.412Z,47.87
2023-02-01T16:39:00.895Z,48.53
2023-02-01T16:41:03.664Z,47.79
2023-02-01T16:43:17.312Z,48.35
2023-02-01T16:45:19.111Z,47.86
2023-02-01T16:47:23.509Z,47.97
2023-02-01T16:49:25.409Z,48.76
2023-02-01T16:51:27.553Z,48.84
2023-02-01T16:53:31.032Z,48.91
2023-02-01T16:55:33.373Z,48.43
2023-02-01T16:57:34.831Z,48.71
2023-02-01T16:59:36.345Z,48.90
2023-02-01T17:01:38.635Z,48.56
2023-02-01T17:03:40.287Z,48.42
2023-02-01T17:05:41.761Z,48.88
2023-02-01T17:07:43.462Z,48.45
2023-02-01T17:09:45.279Z,48.82
2023-02-01T17:11:46.734Z,48.97
2023-02-01T17:13:48.441Z,48.92
2023-02-01T17:15:54.238Z,49.29
2023-02-01T17:17:57.683Z,48.64
2023-02-01T17:19:59.212Z,48.91
2023-02-01T17:22:00.679Z,48.97
2023-02-01T17:24:02.366Z,49.37
2023-02-01T17:26:03.894Z,49.02
2023-02-01T17:28:05.623Z,49.21
2023-02-01T17:30:07.519Z,49.28
2023-02-01T17:32:10.954Z,49.32
2023-02-01T17:34:13.069Z,48.43
2023-02-01T17:36:15.599Z,48.43
2023-02-01T17:38:17.161Z,47.74
2023-02-01T17:40:19.032Z,48.31
2023-02-01T17:42:20.665Z,48.29
2023-02-01T17:44:22.100Z,48.18
2023-02-01T17:46:27.471Z,47.55
2023-02-01T17:48:29.451Z,47.76
2023-02-01T17:50:31.394Z,48.66
2023-02-01T17:52:32.913Z,48.84
2023-02-01T17:54:34.434Z,48.62
2023-02-01T17:56:35.867Z,48.35
2023-02-01T17:58:37.362Z,49.03
2023-02-01T18:00:39.249Z,48.47
2023-02-01T18:02:40.949Z,49.10
2023-02-01T18:04:42.492Z,49.01
2023-02-01T18:06:44.088Z,48.70
2023-02-01T18:08:45.994Z,49.25
2023-02-01T18:10:54.395Z,49.57
2023-02-01T18:12:55.997Z,48.91
2023-02-01T18:14:58.689Z,49.58
2023-02-01T18:17:00.202Z,49.47
2023-02-01T18:19:05.272Z,49.25
2023-02-01T18:21:06.774Z,49.40
2023-02-01T18:23:10.763Z,49.23
2023-02-01T18:25:23.394Z,49.42
2023-02-01T18:27:27.323Z,49.86
2023-02-01T18:29:29.645Z,49.16
2023-02-01T18:31:32.258Z,48.85
2023-02-01T18:33:33.894Z,48.38
2023-02-01T18:35:35.348Z,48.14
2023-02-01T18:37:36.927Z,49.45
2023-02-01T18:39:39.547Z,49.67
2023-02-01T18:41:41.820Z,50.10
2023-02-01T18:43:43.463Z,49.79
2023-02-01T18:45:45.488Z,49.26
2023-02-01T18:47:46.978Z,48.89
2023-02-01T18:49:48.457Z,49.06
2023-02-01T18:51:52.180Z,48.12
2023-02-01T18:53:54.085Z,47.97
2023-02-01T18:55:56.152Z,48.50
2023-02-01T18:57:57.677Z,48.14
2023-02-01T18:59:59.211Z,48.04
2023-02-01T19:02:00.764Z,48.00
2023-02-01T19:04:18.976Z,47.33
2023-02-01T19:06:23.772Z,47.70
2023-02-01T19:08:25.838Z,48.16
2023-02-01T19:10:28.039Z,48.19
2023-02-01T19:12:29.766Z,47.60
2023-02-01T19:14:31.269Z,47.42
2023-02-01T19:16:33.964Z,47.76
2023-02-01T19:18:36.300Z,47.90
2023-02-01T19:20:41.371Z,47.87
2023-02-01T19:22:43.123Z,47.84
2023-02-01T19:24:45.192Z,48.03
2023-02-01T19:26:49.024Z,47.37
2023-02-01T19:28:50.509Z,47.32
2023-02-01T19:31:00.942Z,47.30
2023-02-01T19:33:04.490Z,47.10
2023-02-01T19:35:06.220Z,47.13
2023-02-01T19:37:08.415Z,46.82
2023-02-01T19:39:10.117Z,47.15
2023-02-01T19:41:11.600Z,47.11
2023-02-01T19:43:13.166Z,46.80
2023-02-01T19:45:14.976Z,47.16
2023-02-01T19:47:16.413Z,46.37
2023-02-01T19:49:18.018Z,46.05
2023-02-01T19:51:19.547Z,46.28
2023-02-01T19:53:24.913Z,45.79
2023-02-01T19:55:26.582Z,45.87
2023-02-01T19:57:28.907Z,46.05
2023-02-01T19:59:30.505Z,46.32
2023-02-01T20:01:31.529Z,45.11
2023-02-01T20:03:33.070Z,44.84
2023-02-01T20:05:34.700Z,45.01
2023-02-01T20:07:36.261Z,45.03
2023-02-01T20:09:38.691Z,44.81
2023-02-01T20:11:40.301Z,45.52
2023-02-01T20:13:41.742Z,45.65
2023-02-01T20:15:43.328Z,45.69
2023-02-01T20:17:44.909Z,45.31
2023-02-01T20:19:46.436Z,44.92
2023-02-01T20:21:48.236Z,44.87
2023-02-01T20:23:49.972Z,44.50
2023-02-01T20:25:52.396Z,44.77
2023-02-01T20:27:53.918Z,44.94
2023-02-01T20:29:55.432Z,45.24
2023-02-01T20:31:56.950Z,45.10
2023-02-01T20:33:59.360Z,45.12
2023-02-01T20:36:00.848Z,45.11
2023-02-01T20:38:02.456Z,44.96
2023-02-01T20:40:04.214Z,46.04
2023-02-01T20:42:05.730Z,48.54
2023-02-01T20:44:07.236Z,49.77
2023-02-01T20:46:09.800Z,50.23
2023-02-01T20:48:11.839Z,50.40
2023-02-01T20:50:13.657Z,50.87
2023-02-01T20:52:15.093Z,51.25
2023-02-01T20:54:16.607Z,51.16
2023-02-01T20:56:18.241Z,51.21
2023-02-01T20:58:19.763Z,51.93
2023-02-01T21:00:25.231Z,53.40
2023-02-01T21:02:26.882Z,54.21
2023-02-01T21:04:29.477Z,53.84
2023-02-01T21:06:30.990Z,53.67
2023-02-01T21:08:32.628Z,54.09
2023-02-01T21:10:34.329Z,54.39
2023-02-01T21:12:35.819Z,55.06
2023-02-01T21:14:37.337Z,54.16
2023-02-01T21:16:39.268Z,55.15
2023-02-01T21:18:40.921Z,55.21
2023-02-01T21:20:42.939Z,54.49
2023-02-01T21:22:44.506Z,54.93
2023-02-01T21:24:45.973Z,54.51
2023-02-01T21:26:47.519Z,55.02
2023-02-01T21:28:49.395Z,55.33
2023-02-01T21:30:51.042Z,56.18
2023-02-01T21:32:52.577Z,56.76
2023-02-01T21:34:54.101Z,56.91
2023-02-01T21:36:55.657Z,56.99
2023-02-01T21:39:03.828Z,56.21
2023-02-01T21:41:23.636Z,56.23
2023-02-01T21:43:25.152Z,56.51
2023-02-01T21:45:26.756Z,56.06
2023-02-01T21:47:28.439Z,55.60
2023-02-01T21:49:30.057Z,55.89
2023-02-01T21:51:31.906Z,55.54
2023-02-01T21:53:33.383Z,55.24
2023-02-01T21:55:34.875Z,55.76
2023-02-01T21:57:36.324Z,54.78
2023-02-01T21:59:41.982Z,55.39
2023-02-01T22:01:43.561Z,56.43
2023-02-01T22:03:45.014Z,56.12
2023-02-01T22:05:49.409Z,55.50
2023-02-01T22:07:50.879Z,55.95
2023-02-01T22:09:52.414Z,55.80
2023-02-01T22:11:54.715Z,55.37
2023-02-01T22:13:56.174Z,56.12
2023-02-01T22:15:58.193Z,55.88
2023-02-01T22:17:59.729Z,56.15
2023-02-01T22:20:01.283Z,56.14
2023-02-01T22:22:02.830Z,55.79
2023-02-01T22:24:04.470Z,55.13
2023-02-01T22:26:09.540Z,55.43
2023-02-01T22:28:30.883Z,54.48
2023-02-01T22:30:32.633Z,55.14
2023-02-01T22:32:34.097Z,54.96
2023-02-01T22:34:35.672Z,55.07
2023-02-01T22:36:37.231Z,54.49
2023-02-01T22:38:38.759Z,54.03
2023-02-01T22:40:40.201Z,53.12
2023-02-01T22:42:41.738Z,52.60
2023-02-01T22:44:45.011Z,52.09
2023-02-01T22:46:46.622Z,51.09
2023-02-01T22:48:48.142Z,50.67
2023-02-01T22:50:49.800Z,49.77
2023-02-01T22:52:51.286Z,48.38
2023-02-01T22:54:52.833Z,47.74
2023-02-01T22:56:54.383Z,47.79
2023-02-01T22:58:56.594Z,46.57
2023-02-01T23:01:07.860Z,46.68
2023-02-01T23:03:09.444Z,47.14
2023-02-01T23:05:10.924Z,46.70
2023-02-01T23:07:12.361Z,47.08
2023-02-01T23:09:18.116Z,47.23
2023-02-01T23:11:19.661Z,47.52
2023-02-01T23:13:21.111Z,47.05
2023-02-01T23:15:22.855Z,47.13
2023-02-01T23:17:24.622Z,46.81
2023-02-01T23:19:26.088Z,46.83
2023-02-01T23:21:27.739Z,46.57
2023-02-01T23:23:29.257Z,46.81
2023-02-01T23:25:30.734Z,46.65
2023-02-01T23:27:32.214Z,46.98
2023-02-01T23:29:33.728Z,46.94
2023-02-01T23:31:35.533Z,45.98
2023-02-01T23:33:37.748Z,46.14
2023-02-01T23:35:39.257Z,46.17
2023-02-01T23:37:40.920Z,45.96
2023-02-01T23:39:42.440Z,47.01
2023-02-01T23:41:44.085Z,47.76
2023-02-01T23:43:57.848Z,48.76
2023-02-01T23:45:59.352Z,48.52
2023-02-01T23:48:00.873Z,48.79
2023-02-01T23:50:02.503Z,48.50
2023-02-01T23:52:04.610Z,48.50
2023-02-01T23:54:06.821Z,48.14
2023-02-01T23:56:08.277Z,48.61
2023-02-01T23:58:09.699Z,48.42
